createdAt,value
2019-03-30T00:01:54.152Z,8.92
2019-03-30T00:04:24.617Z,8.90
2019-03-30T00:06:54.696Z,8.90
2019-03-30T00:09:24.959Z,8.85
2019-03-30T00:11:57.840Z,8.85
2019-03-30T00:14:27.370Z,8.84
2019-03-30T00:16:57.968Z,8.85
2019-03-30T00:19:34.754Z,8.85
2019-03-30T00:22:00.632Z,8.85
2019-03-30T00:24:30.971Z,8.84
2019-03-30T00:27:01.356Z,8.84
2019-03-30T00:29:32.138Z,8.86
2019-03-30T00:32:02.355Z,8.86
2019-03-30T00:34:33.772Z,8.85
2019-03-30T00:37:04.299Z,8.90
2019-03-30T00:39:34.947Z,8.91
2019-03-30T00:42:05.342Z,8.92
2019-03-30T00:44:35.676Z,8.93
2019-03-30T00:47:06.356Z,8.94
2019-03-30T00:49:48.527Z,8.92
2019-03-30T00:52:08.612Z,8.92
2019-03-30T00:54:38.988Z,8.89
2019-03-30T00:57:09.109Z,8.87
2019-03-30T00:59:39.658Z,8.86
2019-03-30T01:02:10.126Z,8.87
2019-03-30T01:04:40.511Z,8.87
2019-03-30T01:07:11.139Z,8.87
2019-03-30T01:09:41.511Z,8.87
2019-03-30T01:12:11.970Z,8.90
2019-03-30T01:14:42.713Z,8.84
2019-03-30T01:17:13.222Z,8.82
2019-03-30T01:19:43.604Z,8.82
2019-03-30T01:22:15.210Z,8.82
2019-03-30T01:24:45.585Z,8.80
2019-03-30T01:27:15.824Z,8.85
2019-03-30T01:29:46.019Z,8.85
2019-03-30T01:32:16.344Z,8.84
2019-03-30T01:34:46.716Z,8.85
2019-03-30T01:37:17.445Z,8.84
2019-03-30T01:39:47.600Z,8.83
2019-03-30T01:42:17.820Z,8.83
2019-03-30T01:44:48.175Z,8.78
2019-03-30T01:47:18.556Z,8.84
2019-03-30T01:49:49.322Z,8.79
2019-03-30T01:52:19.707Z,8.79
2019-03-30T01:54:50.096Z,8.79
2019-03-30T01:57:20.604Z,8.86
2019-03-30T01:59:50.837Z,8.86
2019-03-30T02:02:21.305Z,8.85
2019-03-30T02:04:52.005Z,8.87
2019-03-30T02:07:22.525Z,8.83
2019-03-30T02:09:53.197Z,8.77
2019-03-30T02:12:23.533Z,8.79
2019-03-30T02:14:53.998Z,8.79
2019-03-30T02:17:24.738Z,8.76
2019-03-30T02:19:55.404Z,8.76
2019-03-30T02:22:26.209Z,8.77
2019-03-30T02:24:56.477Z,8.76
2019-03-30T02:27:26.982Z,8.74
2019-03-30T02:29:57.785Z,8.72
2019-03-30T02:32:28.167Z,8.72
2019-03-30T02:34:58.520Z,8.70
2019-03-30T02:37:28.661Z,8.70
2019-03-30T02:39:59.010Z,8.68
2019-03-30T02:42:29.320Z,8.68
2019-03-30T02:44:59.541Z,8.65
2019-03-30T02:47:30.827Z,8.58
2019-03-30T02:50:01.095Z,8.54
2019-03-30T02:52:31.771Z,8.53
2019-03-30T02:55:02.014Z,8.53
2019-03-30T02:57:32.385Z,8.48
2019-03-30T03:00:02.750Z,8.49
2019-03-30T03:02:33.232Z,8.47
2019-03-30T03:05:04.677Z,8.45
2019-03-30T03:07:35.163Z,8.45
2019-03-30T03:10:05.626Z,8.45
2019-03-30T03:12:36.020Z,8.45
2019-03-30T03:15:06.522Z,8.46
2019-03-30T03:17:36.915Z,8.47
2019-03-30T03:20:07.527Z,8.48
2019-03-30T03:22:38.506Z,8.50
2019-03-30T03:25:09.608Z,8.50
2019-03-30T03:27:40.043Z,8.55
2019-03-30T03:30:10.666Z,8.55
2019-03-30T03:32:41.159Z,8.53
2019-03-30T03:35:11.693Z,8.53
2019-03-30T03:37:45.535Z,8.51
2019-03-30T03:40:14.287Z,8.47
2019-03-30T03:42:44.681Z,8.49
2019-03-30T03:45:15.302Z,8.49
2019-03-30T03:47:45.746Z,8.55
2019-03-30T03:50:48.141Z,8.60
2019-03-30T03:53:18.912Z,8.57
2019-03-30T03:55:49.362Z,8.57
2019-03-30T03:58:20.585Z,8.59
2019-03-30T04:00:50.805Z,8.57
2019-03-30T04:03:21.104Z,8.60
2019-03-30T04:05:51.953Z,8.60
2019-03-30T04:08:22.609Z,8.62
2019-03-30T04:10:53.051Z,8.62
2019-03-30T04:13:23.593Z,8.59
2019-03-30T04:15:54.168Z,8.57
2019-03-30T04:18:24.826Z,8.59
2019-03-30T04:20:55.334Z,8.59
2019-03-30T04:23:26.371Z,8.58
2019-03-30T04:25:56.707Z,8.58
2019-03-30T04:28:27.100Z,8.62
2019-03-30T04:30:57.936Z,8.62
2019-03-30T04:33:28.507Z,8.61
2019-03-30T04:35:58.963Z,8.61
2019-03-30T04:38:29.811Z,8.67
2019-03-30T04:41:00.234Z,8.64
2019-03-30T04:43:30.757Z,8.57
2019-03-30T04:46:01.734Z,8.57
2019-03-30T04:48:32.299Z,8.60
2019-03-30T04:51:02.686Z,8.60
2019-03-30T04:53:33.221Z,8.58
2019-03-30T04:56:03.423Z,8.49
2019-03-30T04:58:34.178Z,8.49
2019-03-30T05:01:05.321Z,8.54
2019-03-30T05:03:36.044Z,8.52
2019-03-30T05:06:06.592Z,8.57
2019-03-30T05:08:36.878Z,8.57
2019-03-30T05:11:07.358Z,8.57
2019-03-30T05:13:37.940Z,8.58
2019-03-30T05:16:08.960Z,8.58
2019-03-30T05:18:40.145Z,8.58
2019-03-30T05:21:11.721Z,8.60
2019-03-30T05:23:42.459Z,8.60
2019-03-30T05:26:13.404Z,8.61
2019-03-30T05:28:45.560Z,8.61
2019-03-30T05:31:17.869Z,8.63
2019-03-30T05:33:48.341Z,8.63
2019-03-30T05:36:18.894Z,8.63
2019-03-30T05:38:49.768Z,8.67
2019-03-30T05:41:21.537Z,8.67
2019-03-30T05:43:52.097Z,8.69
2019-03-30T05:46:22.569Z,8.75
2019-03-30T05:48:53.093Z,8.77
2019-03-30T05:51:23.930Z,8.73
2019-03-30T05:53:54.793Z,8.80
2019-03-30T05:56:25.319Z,8.80
2019-03-30T05:58:55.650Z,8.80
2019-03-30T06:01:25.975Z,8.86
2019-03-30T06:03:56.910Z,8.93
2019-03-30T06:06:27.472Z,9.03
2019-03-30T06:08:58.175Z,9.03
2019-03-30T06:11:28.749Z,9.05
2019-03-30T06:13:59.161Z,9.09
2019-03-30T06:16:29.801Z,9.12
2019-03-30T06:19:00.180Z,9.18
2019-03-30T06:21:30.654Z,9.29
2019-03-30T06:24:01.136Z,9.29
2019-03-30T06:26:31.888Z,9.39
2019-03-30T06:29:02.387Z,9.39
2019-03-30T06:31:32.770Z,9.55
2019-03-30T06:34:03.150Z,9.63
2019-03-30T06:36:33.922Z,9.67
2019-03-30T06:39:05.491Z,9.67
2019-03-30T06:41:35.825Z,9.75
2019-03-30T06:44:06.525Z,9.84
2019-03-30T06:46:39.468Z,9.92
2019-03-30T06:49:10.021Z,10.13
2019-03-30T06:51:40.699Z,10.13
2019-03-30T06:54:14.668Z,10.20
2019-03-30T06:56:43.556Z,10.29
2019-03-30T06:59:14.243Z,10.39
2019-03-30T07:01:45.415Z,10.39
2019-03-30T07:04:15.939Z,10.58
2019-03-30T07:06:46.777Z,10.62
2019-03-30T07:09:17.114Z,10.71
2019-03-30T07:11:47.581Z,10.84
2019-03-30T07:14:19.087Z,10.93
2019-03-30T07:16:49.945Z,10.93
2019-03-30T07:19:20.290Z,10.97
2019-03-30T07:21:50.762Z,11.04
2019-03-30T07:24:21.219Z,11.16
2019-03-30T07:26:52.113Z,11.22
2019-03-30T07:29:22.765Z,11.22
2019-03-30T07:31:53.401Z,11.36
2019-03-30T07:34:23.925Z,11.41
2019-03-30T07:36:54.612Z,11.42
2019-03-30T07:39:25.611Z,11.51
2019-03-30T07:41:56.147Z,11.51
2019-03-30T07:44:26.872Z,11.61
2019-03-30T07:46:57.419Z,11.61
2019-03-30T07:49:27.733Z,11.76
2019-03-30T07:51:58.154Z,11.76
2019-03-30T07:54:28.761Z,12.06
2019-03-30T07:57:06.226Z,12.06
2019-03-30T07:59:33.548Z,11.97
2019-03-30T08:02:04.459Z,12.13
2019-03-30T08:04:35.003Z,12.13
2019-03-30T08:07:07.133Z,12.23
2019-03-30T08:09:37.492Z,12.27
2019-03-30T08:12:07.976Z,12.23
2019-03-30T08:14:40.062Z,12.19
2019-03-30T08:17:10.659Z,12.51
2019-03-30T08:19:41.543Z,12.51
2019-03-30T08:22:15.476Z,12.68
2019-03-30T08:25:46.027Z,12.62
2019-03-30T08:28:16.373Z,12.68
2019-03-30T08:30:46.814Z,12.68
2019-03-30T08:33:17.251Z,12.91
2019-03-30T08:35:47.753Z,13.17
2019-03-30T08:38:18.167Z,13.17
2019-03-30T08:40:48.492Z,13.17
2019-03-30T08:43:19.090Z,13.11
2019-03-30T08:45:49.557Z,13.29
2019-03-30T08:48:20.180Z,13.29
2019-03-30T08:50:50.679Z,13.30
2019-03-30T08:53:21.730Z,13.75
2019-03-30T08:55:52.768Z,13.85
2019-03-30T08:58:23.489Z,13.94
2019-03-30T09:00:54.010Z,13.94
2019-03-30T09:03:24.383Z,14.08
2019-03-30T09:05:56.083Z,14.08
2019-03-30T09:08:28.993Z,14.36
2019-03-30T09:10:59.820Z,14.44
2019-03-30T09:13:30.088Z,14.56
2019-03-30T09:16:00.601Z,14.56
2019-03-30T09:18:32.468Z,14.71
2019-03-30T09:21:03.437Z,14.63
2019-03-30T09:23:34.149Z,14.63
2019-03-30T09:26:04.777Z,14.83
2019-03-30T09:28:35.857Z,14.77
2019-03-30T09:31:06.426Z,14.68
2019-03-30T09:33:37.249Z,14.77
2019-03-30T09:36:07.657Z,14.81
2019-03-30T09:38:38.474Z,14.94
2019-03-30T09:41:08.947Z,14.94
2019-03-30T09:43:39.397Z,15.08
2019-03-30T09:46:09.911Z,15.15
2019-03-30T09:48:40.759Z,15.22
2019-03-30T09:51:33.006Z,15.11
2019-03-30T09:54:05.719Z,15.24
2019-03-30T09:56:36.699Z,15.51
2019-03-30T09:59:07.795Z,15.51
2019-03-30T10:01:38.183Z,15.45
2019-03-30T10:04:14.996Z,15.57
2019-03-30T10:06:46.789Z,15.57
2019-03-30T10:09:16.994Z,15.78
2019-03-30T10:11:47.437Z,15.78
2019-03-30T10:14:18.012Z,15.93
2019-03-30T10:16:48.781Z,16.00
2019-03-30T10:19:19.375Z,16.00
2019-03-30T10:21:50.069Z,15.99
2019-03-30T10:24:20.607Z,16.06
2019-03-30T10:26:51.093Z,16.12
2019-03-30T10:29:21.865Z,16.18
2019-03-30T10:31:52.377Z,16.19
2019-03-30T10:34:22.833Z,16.36
2019-03-30T10:36:53.676Z,16.36
2019-03-30T10:39:24.055Z,16.22
2019-03-30T10:41:54.824Z,16.40
2019-03-30T10:44:25.190Z,16.40
2019-03-30T10:46:55.965Z,16.40
2019-03-30T10:49:26.360Z,16.62
2019-03-30T10:51:56.970Z,16.64
2019-03-30T10:54:28.573Z,16.79
2019-03-30T10:57:04.911Z,16.64
2019-03-30T10:59:35.490Z,16.64
2019-03-30T11:02:07.558Z,16.60
2019-03-30T11:04:38.279Z,16.83
2019-03-30T11:07:15.841Z,16.83
2019-03-30T11:09:55.155Z,16.83
2019-03-30T11:12:31.406Z,16.64
2019-03-30T11:15:04.579Z,16.79
2019-03-30T11:17:34.956Z,16.66
2019-03-30T11:20:05.618Z,16.94
2019-03-30T11:22:38.154Z,17.13
2019-03-30T11:25:10.071Z,17.30
2019-03-30T11:27:40.333Z,17.52
2019-03-30T11:30:11.789Z,17.66
2019-03-30T11:32:42.102Z,17.66
2019-03-30T11:35:13.495Z,17.31
2019-03-30T11:37:47.480Z,17.19
2019-03-30T11:40:17.673Z,17.47
2019-03-30T11:42:47.951Z,17.47
2019-03-30T11:45:19.352Z,17.82
2019-03-30T11:47:50.234Z,17.82
2019-03-30T11:50:20.643Z,17.40
2019-03-30T11:52:51.176Z,17.40
2019-03-30T11:55:22.617Z,17.38
2019-03-30T11:57:53.088Z,17.34
2019-03-30T12:00:23.346Z,17.49
2019-03-30T12:02:53.702Z,17.54
2019-03-30T12:05:24.735Z,17.55
2019-03-30T12:07:55.613Z,17.55
2019-03-30T12:10:26.671Z,17.79
2019-03-30T12:12:57.188Z,17.79
2019-03-30T12:15:32.214Z,17.65
2019-03-30T12:18:06.031Z,17.83
2019-03-30T12:20:36.345Z,17.93
2019-03-30T12:23:06.641Z,17.93
2019-03-30T12:25:37.185Z,18.17
2019-03-30T12:28:07.834Z,18.13
2019-03-30T12:30:39.096Z,18.13
2019-03-30T12:33:09.649Z,18.24
2019-03-30T12:35:44.481Z,18.24
2019-03-30T12:38:15.305Z,18.10
2019-03-30T12:40:46.627Z,18.10
2019-03-30T12:43:17.122Z,17.99
2019-03-30T12:45:47.682Z,18.01
2019-03-30T12:48:18.555Z,18.29
2019-03-30T12:50:49.197Z,18.29
2019-03-30T12:53:20.103Z,18.45
2019-03-30T12:55:50.458Z,18.20
2019-03-30T12:58:22.747Z,18.38
2019-03-30T13:00:55.684Z,18.41
2019-03-30T13:03:26.509Z,18.26
2019-03-30T13:05:57.302Z,18.27
2019-03-30T13:08:29.382Z,18.22
2019-03-30T13:11:00.383Z,18.22
2019-03-30T13:13:30.770Z,18.42
2019-03-30T13:16:01.137Z,18.41
2019-03-30T13:18:31.740Z,18.40
2019-03-30T13:21:13.131Z,18.47
2019-03-30T13:23:43.790Z,18.50
2019-03-30T13:26:14.273Z,18.38
2019-03-30T13:28:45.184Z,18.38
2019-03-30T13:31:15.486Z,18.63
2019-03-30T13:33:45.823Z,18.44
2019-03-30T13:36:16.496Z,18.44
2019-03-30T13:38:46.969Z,18.64
2019-03-30T13:41:17.796Z,18.64
2019-03-30T13:43:49.541Z,18.43
2019-03-30T13:46:23.129Z,18.40
2019-03-30T13:48:53.553Z,18.40
2019-03-30T13:51:24.315Z,18.31
2019-03-30T13:53:54.838Z,18.31
2019-03-30T13:56:25.742Z,18.17
2019-03-30T13:58:57.685Z,18.46
2019-03-30T14:01:28.833Z,18.46
2019-03-30T14:03:59.139Z,18.52
2019-03-30T14:06:29.335Z,18.52
2019-03-30T14:09:01.167Z,18.52
2019-03-30T14:11:31.646Z,18.50
2019-03-30T14:14:01.947Z,19.10
2019-03-30T14:16:32.594Z,18.68
2019-03-30T14:19:03.073Z,18.68
2019-03-30T14:21:34.018Z,18.85
2019-03-30T14:24:04.577Z,18.78
2019-03-30T14:26:35.009Z,18.68
2019-03-30T14:29:05.376Z,18.72
2019-03-30T14:31:36.084Z,18.68
2019-03-30T14:34:06.441Z,18.41
2019-03-30T14:36:37.096Z,18.70
2019-03-30T14:39:08.641Z,18.53
2019-03-30T14:41:41.599Z,18.53
2019-03-30T14:44:12.490Z,18.88
2019-03-30T14:46:43.143Z,18.64
2019-03-30T14:49:13.738Z,18.72
2019-03-30T14:51:45.333Z,18.84
2019-03-30T14:54:16.210Z,18.55
2019-03-30T14:56:47.179Z,18.84
2019-03-30T14:59:18.064Z,18.84
2019-03-30T15:01:48.742Z,18.77
2019-03-30T15:04:21.301Z,18.79
2019-03-30T15:06:52.145Z,18.77
2019-03-30T15:09:22.600Z,19.02
2019-03-30T15:11:53.469Z,18.81
2019-03-30T15:14:23.898Z,18.76
2019-03-30T15:16:54.536Z,18.69
2019-03-30T15:19:25.117Z,18.98
2019-03-30T15:21:55.611Z,18.99
2019-03-30T15:24:26.160Z,18.84
2019-03-30T15:27:00.252Z,18.74
2019-03-30T15:29:29.165Z,18.95
2019-03-30T15:32:14.256Z,19.00
2019-03-30T15:34:45.330Z,18.83
2019-03-30T15:37:15.926Z,18.95
2019-03-30T15:39:46.625Z,18.57
2019-03-30T15:42:17.498Z,18.68
2019-03-30T15:44:48.696Z,18.54
2019-03-30T15:47:19.027Z,18.82
2019-03-30T15:49:49.561Z,18.49
2019-03-30T15:52:21.037Z,18.84
2019-03-30T15:54:58.188Z,19.03
2019-03-30T15:57:29.047Z,18.78
2019-03-30T16:00:00.389Z,18.78
2019-03-30T16:02:31.085Z,18.98
2019-03-30T16:05:02.557Z,18.98
2019-03-30T16:07:35.524Z,19.13
2019-03-30T16:10:17.866Z,19.21
2019-03-30T16:12:49.565Z,19.02
2019-03-30T16:15:19.876Z,19.02
2019-03-30T16:17:50.513Z,19.17
2019-03-30T16:20:21.411Z,19.17
2019-03-30T16:22:53.642Z,19.45
2019-03-30T16:25:24.828Z,18.90
2019-03-30T16:27:55.691Z,18.90
2019-03-30T16:30:27.767Z,18.80
2019-03-30T16:32:58.106Z,18.81
2019-03-30T16:35:28.314Z,18.78
2019-03-30T16:37:59.835Z,18.78
2019-03-30T16:40:30.555Z,18.82
2019-03-30T16:43:02.007Z,18.82
2019-03-30T16:45:33.340Z,17.91
2019-03-30T16:48:04.059Z,17.94
2019-03-30T16:50:35.143Z,17.94
2019-03-30T16:53:06.174Z,18.01
2019-03-30T16:55:37.327Z,17.81
2019-03-30T16:58:07.943Z,17.97
2019-03-30T17:00:38.471Z,17.68
2019-03-30T17:03:09.077Z,17.68
2019-03-30T17:05:39.321Z,17.55
2019-03-30T17:08:09.966Z,16.97
2019-03-30T17:10:41.546Z,16.97
2019-03-30T17:13:12.179Z,17.05
2019-03-30T17:15:42.598Z,17.11
2019-03-30T17:18:17.366Z,16.95
2019-03-30T17:20:47.629Z,16.76
2019-03-30T17:23:18.700Z,16.76
2019-03-30T17:25:53.384Z,16.38
2019-03-30T17:28:23.959Z,16.38
2019-03-30T17:30:54.403Z,16.40
2019-03-30T17:33:25.241Z,16.26
2019-03-30T17:35:56.464Z,16.26
2019-03-30T17:38:27.006Z,16.25
2019-03-30T17:40:58.527Z,16.15
2019-03-30T17:43:29.180Z,16.00
2019-03-30T17:45:59.678Z,15.90
2019-03-30T17:48:30.546Z,15.81
2019-03-30T17:51:01.593Z,15.89
2019-03-30T17:53:34.313Z,15.83
2019-03-30T17:56:05.219Z,15.63
2019-03-30T17:58:35.551Z,15.54
2019-03-30T18:01:06.400Z,15.37
2019-03-30T18:03:37.236Z,15.37
2019-03-30T18:06:07.522Z,15.26
2019-03-30T18:08:38.281Z,15.07
2019-03-30T18:11:09.125Z,14.85
2019-03-30T18:13:39.527Z,14.85
2019-03-30T18:16:10.781Z,14.86
2019-03-30T18:18:41.353Z,14.74
2019-03-30T18:21:18.792Z,14.69
2019-03-30T18:23:57.245Z,14.51
2019-03-30T18:26:27.989Z,14.60
2019-03-30T18:28:58.635Z,14.60
2019-03-30T18:31:37.933Z,14.59
2019-03-30T18:34:09.173Z,14.57
2019-03-30T18:36:40.725Z,14.45
2019-03-30T18:39:11.779Z,14.45
2019-03-30T18:41:45.227Z,14.27
2019-03-30T18:44:15.969Z,14.27
2019-03-30T18:46:48.685Z,14.02
2019-03-30T18:49:19.656Z,14.04
2019-03-30T18:51:50.439Z,13.79
2019-03-30T18:54:20.795Z,13.77
2019-03-30T18:56:56.302Z,13.70
2019-03-30T18:59:27.246Z,13.51
2019-03-30T19:01:57.915Z,13.43
2019-03-30T19:04:28.776Z,13.39
2019-03-30T19:06:59.566Z,13.39
2019-03-30T19:09:29.992Z,13.12
2019-03-30T19:12:00.759Z,13.12
2019-03-30T19:14:31.247Z,13.03
2019-03-30T19:17:03.065Z,13.03
2019-03-30T19:19:34.398Z,13.06
2019-03-30T19:22:05.370Z,12.95
2019-03-30T19:24:35.726Z,12.89
2019-03-30T19:27:06.374Z,12.85
2019-03-30T19:29:41.210Z,12.85
2019-03-30T19:32:13.340Z,12.71
2019-03-30T19:34:45.223Z,12.71
2019-03-30T19:37:18.003Z,12.72
2019-03-30T19:39:48.363Z,12.72
2019-03-30T19:42:23.398Z,12.51
2019-03-30T19:44:53.952Z,12.51
2019-03-30T19:47:25.153Z,12.59
2019-03-30T19:50:00.005Z,12.59
2019-03-30T19:52:39.679Z,12.43
2019-03-30T19:55:02.625Z,12.43
2019-03-30T19:57:33.175Z,12.43
2019-03-30T20:00:05.684Z,12.27
2019-03-30T20:02:36.496Z,12.27
2019-03-30T20:05:09.930Z,12.16
2019-03-30T20:07:41.071Z,12.13
2019-03-30T20:10:12.720Z,12.01
2019-03-30T20:12:44.039Z,11.87
2019-03-30T20:15:16.788Z,11.84
2019-03-30T20:17:47.247Z,11.89
2019-03-30T20:20:18.166Z,11.89
2019-03-30T20:22:49.202Z,11.87
2019-03-30T20:25:20.713Z,11.62
2019-03-30T20:27:52.010Z,11.62
2019-03-30T20:30:24.402Z,11.65
2019-03-30T20:32:55.020Z,11.66
2019-03-30T20:35:33.780Z,11.52
2019-03-30T20:38:04.673Z,11.52
2019-03-30T20:40:35.674Z,11.47
2019-03-30T20:43:06.753Z,11.41
2019-03-30T20:45:37.234Z,11.41
2019-03-30T20:48:07.890Z,11.40
2019-03-30T20:50:38.796Z,11.34
2019-03-30T20:53:09.355Z,11.33
2019-03-30T20:55:41.673Z,11.33
2019-03-30T20:58:12.655Z,11.32
2019-03-30T21:00:43.172Z,11.22
2019-03-30T21:03:13.565Z,11.13
2019-03-30T21:05:44.463Z,11.14
2019-03-30T21:08:16.908Z,11.14
2019-03-30T21:10:47.345Z,11.12
2019-03-30T21:13:17.967Z,11.12
2019-03-30T21:15:48.842Z,11.05
2019-03-30T21:18:19.591Z,11.01
2019-03-30T21:20:53.255Z,10.96
2019-03-30T21:23:23.836Z,10.89
2019-03-30T21:25:56.403Z,10.91
2019-03-30T21:28:26.598Z,10.85
2019-03-30T21:30:57.328Z,10.85
2019-03-30T21:33:29.049Z,10.78
2019-03-30T21:36:00.062Z,10.80
2019-03-30T21:38:30.705Z,10.82
2019-03-30T21:41:01.221Z,10.75
2019-03-30T21:43:31.608Z,10.77
2019-03-30T21:46:02.477Z,10.81
2019-03-30T21:48:34.312Z,10.81
2019-03-30T21:51:18.031Z,10.78
2019-03-30T21:53:49.452Z,10.70
2019-03-30T21:56:20.001Z,10.72
2019-03-30T21:58:50.456Z,10.72
2019-03-30T22:01:21.667Z,10.72
2019-03-30T22:03:52.152Z,10.69
2019-03-30T22:06:23.045Z,10.64
2019-03-30T22:08:53.536Z,10.59
2019-03-30T22:11:24.159Z,10.57
2019-03-30T22:13:55.351Z,10.57
2019-03-30T22:16:25.854Z,10.56
2019-03-30T22:18:56.414Z,10.49
2019-03-30T22:21:27.124Z,10.49
2019-03-30T22:23:57.827Z,10.41
2019-03-30T22:26:28.362Z,10.36
2019-03-30T22:28:59.087Z,10.42
2019-03-30T22:31:29.842Z,10.32
2019-03-30T22:34:00.834Z,10.32
2019-03-30T22:36:31.170Z,10.33
2019-03-30T22:39:01.637Z,10.33
2019-03-30T22:41:32.667Z,10.28
2019-03-30T22:44:03.205Z,10.22
2019-03-30T22:46:33.536Z,10.22
2019-03-30T22:49:04.041Z,10.21
2019-03-30T22:51:38.282Z,10.19
2019-03-30T22:54:11.839Z,10.19
2019-03-30T22:56:42.947Z,10.13
2019-03-30T22:59:14.558Z,10.13
2019-03-30T23:01:47.942Z,10.18
2019-03-30T23:04:19.381Z,10.07
2019-03-30T23:06:50.167Z,10.05
2019-03-30T23:09:21.132Z,9.91
2019-03-30T23:11:51.774Z,9.98
2019-03-30T23:14:22.700Z,9.98
2019-03-30T23:16:53.180Z,9.96
2019-03-30T23:19:23.708Z,9.97
2019-03-30T23:21:55.161Z,9.99
2019-03-30T23:24:26.090Z,9.99
2019-03-30T23:26:56.319Z,9.87
2019-03-30T23:29:27.050Z,9.87
2019-03-30T23:31:57.671Z,9.85
2019-03-30T23:34:28.133Z,9.70
2019-03-30T23:36:58.725Z,9.70
2019-03-30T23:39:29.209Z,9.86
2019-03-30T23:41:59.715Z,9.86
2019-03-30T23:44:30.328Z,9.85
2019-03-30T23:47:01.133Z,9.77
2019-03-30T23:49:31.683Z,9.76
2019-03-30T23:52:02.408Z,9.80
2019-03-30T23:54:33.248Z,9.80
2019-03-30T23:57:04.328Z,9.79
2019-03-30T23:59:34.805Z,9.74
